sensor_id;sensor_type;location;lat;lon;timestamp;pressure;altitude;pressure_sealevel;temperature;humidity
19843;BME280;10082;51.038;6.992;2024-02-23T00:00:53;112171.53;;;-144.33;100.00
19843;BME280;10082;51.038;6.992;2024-02-23T00:03:21;112171.53;;;-144.33;100.00
19843;BME280;10082;51.038;6.992;2024-02-23T00:05:47;112171.53;;;-144.33;100.00
19843;BME280;10082;51.038;6.992;2024-02-23T00:08:14;112171.53;;;-144.33;100.00
19843;BME280;10082;51.038;6.992;2024-02-23T00:10:43;112171.53;;;-144.33;100.00
19843;BME280;10082;51.038;6.992;2024-02-23T00:13:10;112171.53;;;-144.33;100.00
19843;BME280;10082;51.038;6.992;2024-02-23T00:15:37;112171.53;;;-144.33;100.00
19843;BME280;10082;51.038;6.992;2024-02-23T00:18:04;112171.53;;;-144.33;100.00
19843;BME280;10082;51.038;6.992;2024-02-23T00:20:32;112171.53;;;-144.33;100.00
19843;BME280;10082;51.038;6.992;2024-02-23T00:23:05;112171.53;;;-144.33;100.00
19843;BME280;10082;51.038;6.992;2024-02-23T00:25:32;112171.53;;;-144.33;100.00
19843;BME280;10082;51.038;6.992;2024-02-23T00:28:00;112171.53;;;-144.33;100.00
19843;BME280;10082;51.038;6.992;2024-02-23T00:30:27;112171.53;;;-144.33;100.00
19843;BME280;10082;51.038;6.992;2024-02-23T00:32:54;112171.53;;;-144.33;100.00
19843;BME280;10082;51.038;6.992;2024-02-23T00:35:21;112171.53;;;-144.33;100.00
19843;BME280;10082;51.038;6.992;2024-02-23T00:37:48;112171.53;;;-144.33;100.00
19843;BME280;10082;51.038;6.992;2024-02-23T00:40:15;112171.53;;;-144.33;100.00
19843;BME280;10082;51.038;6.992;2024-02-23T00:42:42;112171.53;;;-144.33;100.00
19843;BME280;10082;51.038;6.992;2024-02-23T00:45:14;112171.53;;;-144.33;100.00
19843;BME280;10082;51.038;6.992;2024-02-23T00:47:42;112171.53;;;-144.33;100.00
19843;BME280;10082;51.038;6.992;2024-02-23T00:50:09;112171.53;;;-144.33;100.00
19843;BME280;10082;51.038;6.992;2024-02-23T00:52:37;112171.53;;;-144.33;100.00
19843;BME280;10082;51.038;6.992;2024-02-23T00:55:04;112171.53;;;-144.33;100.00
19843;BME280;10082;51.038;6.992;2024-02-23T00:57:33;112171.53;;;-144.33;100.00
19843;BME280;10082;51.038;6.992;2024-02-23T01:00:01;112171.53;;;-144.33;100.00
19843;BME280;10082;51.038;6.992;2024-02-23T01:02:35;112171.53;;;-144.33;100.00
19843;BME280;10082;51.038;6.992;2024-02-23T01:05:03;112171.53;;;-144.33;100.00
19843;BME280;10082;51.038;6.992;2024-02-23T01:07:33;112171.53;;;-144.33;100.00
19843;BME280;10082;51.038;6.992;2024-02-23T01:10:00;112171.53;;;-144.33;100.00
19843;BME280;10082;51.038;6.992;2024-02-23T01:12:27;112171.53;;;-144.33;100.00
19843;BME280;10082;51.038;6.992;2024-02-23T01:14:54;112171.53;;;-144.33;100.00
19843;BME280;10082;51.038;6.992;2024-02-23T01:17:21;112171.53;;;-144.33;100.00
19843;BME280;10082;51.038;6.992;2024-02-23T01:19:49;112171.53;;;-144.33;100.00
19843;BME280;10082;51.038;6.992;2024-02-23T01:22:17;112171.53;;;-144.33;100.00
19843;BME280;10082;51.038;6.992;2024-02-23T01:24:44;112171.53;;;-144.33;100.00
19843;BME280;10082;51.038;6.992;2024-02-23T01:27:11;112171.53;;;-144.33;100.00
19843;BME280;10082;51.038;6.992;2024-02-23T01:29:40;112171.53;;;-144.33;100.00
19843;BME280;10082;51.038;6.992;2024-02-23T01:32:06;112171.53;;;-144.33;100.00
19843;BME280;10082;51.038;6.992;2024-02-23T01:34:33;112171.53;;;-144.33;100.00
19843;BME280;10082;51.038;6.992;2024-02-23T01:37:03;112171.53;;;-144.33;100.00
19843;BME280;10082;51.038;6.992;2024-02-23T01:39:30;112171.53;;;-144.33;100.00
19843;BME280;10082;51.038;6.992;2024-02-23T01:41:57;112171.53;;;-144.33;100.00
19843;BME280;10082;51.038;6.992;2024-02-23T01:44:24;112171.53;;;-144.33;100.00
19843;BME280;10082;51.038;6.992;2024-02-23T01:46:51;112171.53;;;-144.33;100.00
19843;BME280;10082;51.038;6.992;2024-02-23T01:49:18;112171.53;;;-144.33;100.00
19843;BME280;10082;51.038;6.992;2024-02-23T01:51:46;112171.53;;;-144.33;100.00
19843;BME280;10082;51.038;6.992;2024-02-23T01:54:16;112171.53;;;-144.33;100.00
19843;BME280;10082;51.038;6.992;2024-02-23T01:56:43;112171.53;;;-144.33;100.00
19843;BME280;10082;51.038;6.992;2024-02-23T01:59:10;112171.53;;;-144.33;100.00
19843;BME280;10082;51.038;6.992;2024-02-23T02:01:39;112171.53;;;-144.33;100.00
19843;BME280;10082;51.038;6.992;2024-02-23T02:04:06;112171.53;;;-144.33;100.00
19843;BME280;10082;51.038;6.992;2024-02-23T02:06:33;112171.53;;;-144.33;100.00
19843;BME280;10082;51.038;6.992;2024-02-23T02:09:00;112171.53;;;-144.33;100.00
19843;BME280;10082;51.038;6.992;2024-02-23T02:11:29;112171.53;;;-144.33;100.00
19843;BME280;10082;51.038;6.992;2024-02-23T02:13:56;112171.53;;;-144.33;100.00
19843;BME280;10082;51.038;6.992;2024-02-23T02:16:23;112171.53;;;-144.33;100.00
19843;BME280;10082;51.038;6.992;2024-02-23T02:18:50;112171.53;;;-144.33;100.00
19843;BME280;10082;51.038;6.992;2024-02-23T02:21:17;112171.53;;;-144.33;100.00
19843;BME280;10082;51.038;6.992;2024-02-23T02:23:49;112171.53;;;-144.33;100.00
19843;BME280;10082;51.038;6.992;2024-02-23T02:26:16;112171.53;;;-144.33;100.00
19843;BME280;10082;51.038;6.992;2024-02-23T02:28:44;112171.53;;;-144.33;100.00
19843;BME280;10082;51.038;6.992;2024-02-23T02:31:11;112171.53;;;-144.33;100.00
19843;BME280;10082;51.038;6.992;2024-02-23T02:33:39;112171.53;;;-144.33;100.00
19843;BME280;10082;51.038;6.992;2024-02-23T02:36:07;112171.53;;;-144.33;100.00
19843;BME280;10082;51.038;6.992;2024-02-23T02:38:34;112171.53;;;-144.33;100.00
19843;BME280;10082;51.038;6.992;2024-02-23T02:41:01;112171.53;;;-144.33;100.00
19843;BME280;10082;51.038;6.992;2024-02-23T02:43:28;112171.53;;;-144.33;100.00
19843;BME280;10082;51.038;6.992;2024-02-23T02:45:57;112171.53;;;-144.33;100.00
19843;BME280;10082;51.038;6.992;2024-02-23T02:48:24;112171.53;;;-144.33;100.00
19843;BME280;10082;51.038;6.992;2024-02-23T02:50:51;112171.53;;;-144.33;100.00
19843;BME280;10082;51.038;6.992;2024-02-23T02:53:18;112171.53;;;-144.33;100.00
19843;BME280;10082;51.038;6.992;2024-02-23T02:55:45;112171.53;;;-144.33;100.00
19843;BME280;10082;51.038;6.992;2024-02-23T02:58:12;112171.53;;;-144.33;100.00
19843;BME280;10082;51.038;6.992;2024-02-23T03:00:39;112171.53;;;-144.33;100.00
19843;BME280;10082;51.038;6.992;2024-02-23T03:03:08;112171.53;;;-144.33;100.00
19843;BME280;10082;51.038;6.992;2024-02-23T03:05:35;112171.53;;;-144.33;100.00
19843;BME280;10082;51.038;6.992;2024-02-23T03:08:02;112171.53;;;-144.33;100.00
19843;BME280;10082;51.038;6.992;2024-02-23T03:10:29;112171.53;;;-144.33;100.00
19843;BME280;10082;51.038;6.992;2024-02-23T03:12:56;112171.53;;;-144.33;100.00
19843;BME280;10082;51.038;6.992;2024-02-23T03:15:23;112171.53;;;-144.33;100.00
19843;BME280;10082;51.038;6.992;2024-02-23T03:17:50;112171.53;;;-144.33;100.00
19843;BME280;10082;51.038;6.992;2024-02-23T03:20:18;112171.53;;;-144.33;100.00
19843;BME280;10082;51.038;6.992;2024-02-23T03:22:50;112171.53;;;-144.33;100.00
19843;BME280;10082;51.038;6.992;2024-02-23T03:25:18;112171.53;;;-144.33;100.00
19843;BME280;10082;51.038;6.992;2024-02-23T03:27:45;112171.53;;;-144.33;100.00
19843;BME280;10082;51.038;6.992;2024-02-23T03:30:13;112171.53;;;-144.33;100.00
19843;BME280;10082;51.038;6.992;2024-02-23T03:32:41;112171.53;;;-144.33;100.00
19843;BME280;10082;51.038;6.992;2024-02-23T03:35:08;112171.53;;;-144.33;100.00
19843;BME280;10082;51.038;6.992;2024-02-23T03:37:37;112171.53;;;-144.33;100.00
19843;BME280;10082;51.038;6.992;2024-02-23T03:43:26;112171.53;;;-144.33;100.00
19843;BME280;10082;51.038;6.992;2024-02-23T03:45:53;112171.53;;;-144.33;100.00
19843;BME280;10082;51.038;6.992;2024-02-23T03:48:20;112171.53;;;-144.33;100.00
19843;BME280;10082;51.038;6.992;2024-02-23T03:50:47;112171.53;;;-144.33;100.00
19843;BME280;10082;51.038;6.992;2024-02-23T03:53:15;112171.53;;;-144.33;100.00
19843;BME280;10082;51.038;6.992;2024-02-23T03:55:42;112171.53;;;-144.33;100.00
19843;BME280;10082;51.038;6.992;2024-02-23T03:58:09;112171.53;;;-144.33;100.00
19843;BME280;10082;51.038;6.992;2024-02-23T04:00:36;112171.53;;;-144.33;100.00
19843;BME280;10082;51.038;6.992;2024-02-23T04:05:48;112171.53;;;-144.33;100.00
19843;BME280;10082;51.038;6.992;2024-02-23T04:08:17;112171.53;;;-144.33;100.00
19843;BME280;10082;51.038;6.992;2024-02-23T04:10:44;112171.53;;;-144.33;100.00
19843;BME280;10082;51.038;6.992;2024-02-23T04:13:11;112171.53;;;-144.33;100.00
19843;BME280;10082;51.038;6.992;2024-02-23T04:15:39;112171.53;;;-144.33;100.00
19843;BME280;10082;51.038;6.992;2024-02-23T04:18:06;112171.53;;;-144.33;100.00
19843;BME280;10082;51.038;6.992;2024-02-23T04:20:33;112171.53;;;-144.33;100.00
19843;BME280;10082;51.038;6.992;2024-02-23T04:23:00;112171.53;;;-144.33;100.00
19843;BME280;10082;51.038;6.992;2024-02-23T04:25:32;112171.53;;;-144.33;100.00
19843;BME280;10082;51.038;6.992;2024-02-23T04:27:59;112171.53;;;-144.33;100.00
19843;BME280;10082;51.038;6.992;2024-02-23T04:30:26;112171.53;;;-144.33;100.00
19843;BME280;10082;51.038;6.992;2024-02-23T04:32:54;112171.53;;;-144.33;100.00
19843;BME280;10082;51.038;6.992;2024-02-23T04:35:21;112171.53;;;-144.33;100.00
19843;BME280;10082;51.038;6.992;2024-02-23T04:37:48;112171.53;;;-144.33;100.00
19843;BME280;10082;51.038;6.992;2024-02-23T04:40:15;112171.53;;;-144.33;100.00
19843;BME280;10082;51.038;6.992;2024-02-23T04:42:45;112171.53;;;-144.33;100.00
19843;BME280;10082;51.038;6.992;2024-02-23T04:45:12;112171.53;;;-144.33;100.00
19843;BME280;10082;51.038;6.992;2024-02-23T04:47:41;112171.53;;;-144.33;100.00
19843;BME280;10082;51.038;6.992;2024-02-23T04:50:08;112171.53;;;-144.33;100.00
19843;BME280;10082;51.038;6.992;2024-02-23T04:52:35;112171.53;;;-144.33;100.00
19843;BME280;10082;51.038;6.992;2024-02-23T04:55:03;112171.53;;;-144.33;100.00
19843;BME280;10082;51.038;6.992;2024-02-23T04:57:31;112171.53;;;-144.33;100.00
19843;BME280;10082;51.038;6.992;2024-02-23T04:59:59;112171.53;;;-144.33;100.00
19843;BME280;10082;51.038;6.992;2024-02-23T05:02:27;112171.53;;;-144.33;100.00
19843;BME280;10082;51.038;6.992;2024-02-23T05:05:00;112171.53;;;-144.33;100.00
19843;BME280;10082;51.038;6.992;2024-02-23T05:07:27;112171.53;;;-144.33;100.00
19843;BME280;10082;51.038;6.992;2024-02-23T05:09:54;112171.53;;;-144.33;100.00
19843;BME280;10082;51.038;6.992;2024-02-23T05:12:21;112171.53;;;-144.33;100.00
19843;BME280;10082;51.038;6.992;2024-02-23T05:14:48;112171.53;;;-144.33;100.00
19843;BME280;10082;51.038;6.992;2024-02-23T05:17:16;112171.53;;;-144.33;100.00
19843;BME280;10082;51.038;6.992;2024-02-23T05:19:44;112171.53;;;-144.33;100.00
19843;BME280;10082;51.038;6.992;2024-02-23T05:22:12;112171.53;;;-144.33;100.00
19843;BME280;10082;51.038;6.992;2024-02-23T05:24:38;112171.53;;;-144.33;100.00
19843;BME280;10082;51.038;6.992;2024-02-23T05:27:05;112171.53;;;-144.33;100.00
19843;BME280;10082;51.038;6.992;2024-02-23T05:29:32;112171.53;;;-144.33;100.00
19843;BME280;10082;51.038;6.992;2024-02-23T05:31:59;112171.53;;;-144.33;100.00
19843;BME280;10082;51.038;6.992;2024-02-23T05:34:29;112171.53;;;-144.33;100.00
19843;BME280;10082;51.038;6.992;2024-02-23T05:36:56;112171.53;;;-144.33;100.00
19843;BME280;10082;51.038;6.992;2024-02-23T05:39:23;112171.53;;;-144.33;100.00
19843;BME280;10082;51.038;6.992;2024-02-23T05:41:50;112171.53;;;-144.33;100.00
19843;BME280;10082;51.038;6.992;2024-02-23T05:44:16;112171.53;;;-144.33;100.00
19843;BME280;10082;51.038;6.992;2024-02-23T05:46:43;112171.53;;;-144.33;100.00
19843;BME280;10082;51.038;6.992;2024-02-23T05:49:11;112171.53;;;-144.33;100.00
19843;BME280;10082;51.038;6.992;2024-02-23T05:51:39;112171.53;;;-144.33;100.00
19843;BME280;10082;51.038;6.992;2024-02-23T05:54:08;112171.53;;;-144.33;100.00
19843;BME280;10082;51.038;6.992;2024-02-23T05:56:35;112171.53;;;-144.33;100.00
19843;BME280;10082;51.038;6.992;2024-02-23T05:59:03;112171.53;;;-144.33;100.00
19843;BME280;10082;51.038;6.992;2024-02-23T06:01:30;112171.53;;;-144.33;100.00
19843;BME280;10082;51.038;6.992;2024-02-23T06:03:57;112171.53;;;-144.33;100.00
19843;BME280;10082;51.038;6.992;2024-02-23T06:06:25;112171.53;;;-144.33;100.00
19843;BME280;10082;51.038;6.992;2024-02-23T06:08:54;112171.53;;;-144.33;100.00
19843;BME280;10082;51.038;6.992;2024-02-23T06:11:26;112171.53;;;-144.33;100.00
19843;BME280;10082;51.038;6.992;2024-02-23T06:13:53;112171.53;;;-144.33;100.00
19843;BME280;10082;51.038;6.992;2024-02-23T06:16:23;112171.53;;;-144.33;100.00
19843;BME280;10082;51.038;6.992;2024-02-23T06:18:50;112171.53;;;-144.33;100.00
19843;BME280;10082;51.038;6.992;2024-02-23T06:21:17;112171.53;;;-144.33;100.00
19843;BME280;10082;51.038;6.992;2024-02-23T06:23:44;112171.53;;;-144.33;100.00
19843;BME280;10082;51.038;6.992;2024-02-23T06:26:13;112171.53;;;-144.33;100.00
19843;BME280;10082;51.038;6.992;2024-02-23T06:28:41;112171.53;;;-144.33;100.00
19843;BME280;10082;51.038;6.992;2024-02-23T06:31:09;112171.53;;;-144.33;100.00
19843;BME280;10082;51.038;6.992;2024-02-23T06:33:37;112171.53;;;-144.33;100.00
19843;BME280;10082;51.038;6.992;2024-02-23T06:36:04;112171.53;;;-144.33;100.00
19843;BME280;10082;51.038;6.992;2024-02-23T06:38:33;112171.53;;;-144.33;100.00
19843;BME280;10082;51.038;6.992;2024-02-23T06:41:00;112171.53;;;-144.33;100.00
19843;BME280;10082;51.038;6.992;2024-02-23T06:43:29;112171.53;;;-144.33;100.00
19843;BME280;10082;51.038;6.992;2024-02-23T06:45:56;112171.53;;;-144.33;100.00
19843;BME280;10082;51.038;6.992;2024-02-23T06:48:23;112171.53;;;-144.33;100.00
19843;BME280;10082;51.038;6.992;2024-02-23T06:50:51;112171.53;;;-144.33;100.00
19843;BME280;10082;51.038;6.992;2024-02-23T06:53:18;112171.53;;;-144.33;100.00
19843;BME280;10082;51.038;6.992;2024-02-23T06:55:45;112171.53;;;-144.33;100.00
19843;BME280;10082;51.038;6.992;2024-02-23T06:58:12;112171.53;;;-144.33;100.00
19843;BME280;10082;51.038;6.992;2024-02-23T07:00:41;112171.53;;;-144.33;100.00
19843;BME280;10082;51.038;6.992;2024-02-23T07:03:09;112171.53;;;-144.33;100.00
19843;BME280;10082;51.038;6.992;2024-02-23T07:05:36;112171.53;;;-144.33;100.00
19843;BME280;10082;51.038;6.992;2024-02-23T07:08:04;112171.53;;;-144.33;100.00
19843;BME280;10082;51.038;6.992;2024-02-23T07:10:31;112171.53;;;-144.33;100.00
19843;BME280;10082;51.038;6.992;2024-02-23T07:12:58;112171.53;;;-144.33;100.00
19843;BME280;10082;51.038;6.992;2024-02-23T07:15:25;112171.53;;;-144.33;100.00
19843;BME280;10082;51.038;6.992;2024-02-23T07:17:53;112171.53;;;-144.33;100.00
19843;BME280;10082;51.038;6.992;2024-02-23T07:20:21;112171.53;;;-144.33;100.00
19843;BME280;10082;51.038;6.992;2024-02-23T07:22:48;112171.53;;;-144.33;100.00
19843;BME280;10082;51.038;6.992;2024-02-23T07:25:16;112171.53;;;-144.33;100.00
19843;BME280;10082;51.038;6.992;2024-02-23T07:27:43;112171.53;;;-144.33;100.00
19843;BME280;10082;51.038;6.992;2024-02-23T07:30:11;112171.53;;;-144.33;100.00
19843;BME280;10082;51.038;6.992;2024-02-23T07:32:38;112171.53;;;-144.33;100.00
19843;BME280;10082;51.038;6.992;2024-02-23T07:35:07;112171.53;;;-144.33;100.00
19843;BME280;10082;51.038;6.992;2024-02-23T07:37:35;112171.53;;;-144.33;100.00
19843;BME280;10082;51.038;6.992;2024-02-23T07:40:02;112171.53;;;-144.33;100.00
19843;BME280;10082;51.038;6.992;2024-02-23T07:42:30;112171.53;;;-144.33;100.00
19843;BME280;10082;51.038;6.992;2024-02-23T07:44:57;112171.53;;;-144.33;100.00
19843;BME280;10082;51.038;6.992;2024-02-23T07:47:24;112171.53;;;-144.33;100.00
19843;BME280;10082;51.038;6.992;2024-02-23T07:49:54;112171.53;;;-144.33;100.00
19843;BME280;10082;51.038;6.992;2024-02-23T07:52:22;112171.53;;;-144.33;100.00
19843;BME280;10082;51.038;6.992;2024-02-23T07:54:50;112171.53;;;-144.33;100.00
19843;BME280;10082;51.038;6.992;2024-02-23T07:57:18;112171.53;;;-144.33;100.00
19843;BME280;10082;51.038;6.992;2024-02-23T07:59:45;112171.53;;;-144.33;100.00
19843;BME280;10082;51.038;6.992;2024-02-23T08:02:12;112171.53;;;-144.33;100.00
19843;BME280;10082;51.038;6.992;2024-02-23T08:04:39;112171.53;;;-144.33;100.00
19843;BME280;10082;51.038;6.992;2024-02-23T08:07:07;112171.53;;;-144.33;100.00
19843;BME280;10082;51.038;6.992;2024-02-23T08:09:36;112171.53;;;-144.33;100.00
19843;BME280;10082;51.038;6.992;2024-02-23T08:12:04;112171.53;;;-144.33;100.00
19843;BME280;10082;51.038;6.992;2024-02-23T08:14:31;112171.53;;;-144.33;100.00
19843;BME280;10082;51.038;6.992;2024-02-23T08:16:59;112171.53;;;-144.33;100.00
19843;BME280;10082;51.038;6.992;2024-02-23T08:19:26;112171.53;;;-144.33;100.00
19843;BME280;10082;51.038;6.992;2024-02-23T08:21:53;112171.53;;;-144.33;100.00
19843;BME280;10082;51.038;6.992;2024-02-23T08:24:20;112171.53;;;-144.33;100.00
19843;BME280;10082;51.038;6.992;2024-02-23T08:26:48;112171.53;;;-144.33;100.00
19843;BME280;10082;51.038;6.992;2024-02-23T08:29:16;112171.53;;;-144.33;100.00
19843;BME280;10082;51.038;6.992;2024-02-23T08:31:43;112171.53;;;-144.33;100.00
19843;BME280;10082;51.038;6.992;2024-02-23T08:34:10;112171.53;;;-144.33;100.00
19843;BME280;10082;51.038;6.992;2024-02-23T08:36:37;112171.53;;;-144.33;100.00
19843;BME280;10082;51.038;6.992;2024-02-23T08:39:04;112171.53;;;-144.33;100.00
19843;BME280;10082;51.038;6.992;2024-02-23T08:41:33;112171.53;;;-144.33;100.00
19843;BME280;10082;51.038;6.992;2024-02-23T08:44:02;112171.53;;;-144.33;100.00
19843;BME280;10082;51.038;6.992;2024-02-23T08:46:29;112171.53;;;-144.33;100.00
19843;BME280;10082;51.038;6.992;2024-02-23T08:48:56;112171.53;;;-144.33;100.00
19843;BME280;10082;51.038;6.992;2024-02-23T08:51:29;112171.53;;;-144.33;100.00
19843;BME280;10082;51.038;6.992;2024-02-23T08:53:56;112171.53;;;-144.33;100.00
19843;BME280;10082;51.038;6.992;2024-02-23T08:56:28;112171.53;;;-144.33;100.00
19843;BME280;10082;51.038;6.992;2024-02-23T08:58:55;112171.53;;;-144.33;100.00
19843;BME280;10082;51.038;6.992;2024-02-23T09:01:24;112171.53;;;-144.33;100.00
19843;BME280;10082;51.038;6.992;2024-02-23T09:03:51;112171.53;;;-144.33;100.00
19843;BME280;10082;51.038;6.992;2024-02-23T09:06:18;112171.53;;;-144.33;100.00
19843;BME280;10082;51.038;6.992;2024-02-23T09:08:45;112171.53;;;-144.33;100.00
19843;BME280;10082;51.038;6.992;2024-02-23T09:11:12;112171.53;;;-144.33;100.00
19843;BME280;10082;51.038;6.992;2024-02-23T09:13:43;112171.53;;;-144.33;100.00
19843;BME280;10082;51.038;6.992;2024-02-23T09:16:10;112171.53;;;-144.33;100.00
19843;BME280;10082;51.038;6.992;2024-02-23T09:18:40;112171.53;;;-144.33;100.00
19843;BME280;10082;51.038;6.992;2024-02-23T09:21:07;112171.53;;;-144.33;100.00
19843;BME280;10082;51.038;6.992;2024-02-23T09:23:34;112171.53;;;-144.33;100.00
19843;BME280;10082;51.038;6.992;2024-02-23T09:26:01;112171.53;;;-144.33;100.00
19843;BME280;10082;51.038;6.992;2024-02-23T09:28:30;112171.53;;;-144.33;100.00
19843;BME280;10082;51.038;6.992;2024-02-23T09:30:57;112171.53;;;-144.33;100.00
19843;BME280;10082;51.038;6.992;2024-02-23T09:33:24;112171.53;;;-144.33;100.00
19843;BME280;10082;51.038;6.992;2024-02-23T09:35:59;112171.53;;;-144.33;100.00
19843;BME280;10082;51.038;6.992;2024-02-23T09:38:27;112171.53;;;-144.33;100.00
19843;BME280;10082;51.038;6.992;2024-02-23T09:40:54;112171.53;;;-144.33;100.00
19843;BME280;10082;51.038;6.992;2024-02-23T09:43:21;112171.53;;;-144.33;100.00
19843;BME280;10082;51.038;6.992;2024-02-23T09:45:50;112171.53;;;-144.33;100.00
19843;BME280;10082;51.038;6.992;2024-02-23T09:48:18;112171.53;;;-144.33;100.00
19843;BME280;10082;51.038;6.992;2024-02-23T09:50:47;112171.53;;;-144.33;100.00
19843;BME280;10082;51.038;6.992;2024-02-23T09:53:17;112171.53;;;-144.33;100.00
19843;BME280;10082;51.038;6.992;2024-02-23T09:55:47;112171.53;;;-144.33;97.84
19843;BME280;10082;51.038;6.992;2024-02-23T09:58:16;112171.53;;;-144.33;95.12
19843;BME280;10082;51.038;6.992;2024-02-23T10:00:44;112171.53;;;-144.33;93.43
19843;BME280;10082;51.038;6.992;2024-02-23T10:03:11;112171.53;;;-144.33;92.68
19843;BME280;10082;51.038;6.992;2024-02-23T10:05:39;112171.53;;;-144.33;93.79
19843;BME280;10082;51.038;6.992;2024-02-23T10:08:06;112171.53;;;-144.33;92.01
19843;BME280;10082;51.038;6.992;2024-02-23T10:10:35;112171.53;;;-144.33;93.83
19843;BME280;10082;51.038;6.992;2024-02-23T10:13:04;112171.53;;;-144.33;95.26
19843;BME280;10082;51.038;6.992;2024-02-23T10:15:31;112171.53;;;-144.33;96.66
19843;BME280;10082;51.038;6.992;2024-02-23T10:17:58;112171.53;;;-144.33;97.21
19843;BME280;10082;51.038;6.992;2024-02-23T10:20:25;112171.53;;;-144.33;98.16
19843;BME280;10082;51.038;6.992;2024-02-23T10:22:52;112171.53;;;-144.33;99.33
19843;BME280;10082;51.038;6.992;2024-02-23T10:25:20;112171.53;;;-144.33;99.60
19843;BME280;10082;51.038;6.992;2024-02-23T10:27:49;112171.53;;;-144.33;99.58
19843;BME280;10082;51.038;6.992;2024-02-23T10:30:16;112171.53;;;-144.33;100.00
19843;BME280;10082;51.038;6.992;2024-02-23T10:32:43;112171.53;;;-144.33;100.00
19843;BME280;10082;51.038;6.992;2024-02-23T10:35:14;112171.53;;;-144.33;99.54
19843;BME280;10082;51.038;6.992;2024-02-23T10:37:42;112171.53;;;-144.33;98.75
19843;BME280;10082;51.038;6.992;2024-02-23T10:40:11;112171.53;;;-144.33;98.95
19843;BME280;10082;51.038;6.992;2024-02-23T10:42:39;112171.53;;;-144.33;98.95
19843;BME280;10082;51.038;6.992;2024-02-23T10:45:09;112171.53;;;-144.33;98.45
19843;BME280;10082;51.038;6.992;2024-02-23T10:47:37;112171.53;;;-144.33;98.52
19843;BME280;10082;51.038;6.992;2024-02-23T10:50:06;112171.53;;;-144.33;99.81
19843;BME280;10082;51.038;6.992;2024-02-23T10:52:35;112171.53;;;-144.33;100.00
19843;BME280;10082;51.038;6.992;2024-02-23T10:55:02;112171.53;;;-144.33;100.00
19843;BME280;10082;51.038;6.992;2024-02-23T10:57:30;112171.53;;;-144.33;100.00
19843;BME280;10082;51.038;6.992;2024-02-23T10:59:59;112171.53;;;-144.33;100.00
19843;BME280;10082;51.038;6.992;2024-02-23T11:02:28;112171.53;;;-144.33;100.00
19843;BME280;10082;51.038;6.992;2024-02-23T11:04:59;112171.53;;;-144.33;100.00
19843;BME280;10082;51.038;6.992;2024-02-23T11:07:29;112171.53;;;-144.33;100.00
19843;BME280;10082;51.038;6.992;2024-02-23T11:09:58;112171.53;;;-144.33;100.00
19843;BME280;10082;51.038;6.992;2024-02-23T11:12:28;112171.53;;;-144.33;100.00
19843;BME280;10082;51.038;6.992;2024-02-23T11:14:59;112171.53;;;-144.33;100.00
19843;BME280;10082;51.038;6.992;2024-02-23T11:17:30;112171.53;;;-144.33;100.00
19843;BME280;10082;51.038;6.992;2024-02-23T11:19:58;112171.53;;;-144.33;100.00
19843;BME280;10082;51.038;6.992;2024-02-23T11:22:25;112171.53;;;-144.33;100.00
19843;BME280;10082;51.038;6.992;2024-02-23T11:24:53;112171.53;;;-144.33;100.00
19843;BME280;10082;51.038;6.992;2024-02-23T11:27:21;112171.53;;;-144.33;100.00
19843;BME280;10082;51.038;6.992;2024-02-23T11:29:59;112171.53;;;-144.33;100.00
19843;BME280;10082;51.038;6.992;2024-02-23T11:32:37;112171.53;;;-144.33;100.00
19843;BME280;10082;51.038;6.992;2024-02-23T11:35:07;112171.53;;;-144.33;100.00
19843;BME280;10082;51.038;6.992;2024-02-23T11:37:45;112171.53;;;-144.33;100.00
19843;BME280;10082;51.038;6.992;2024-02-23T11:40:12;112171.53;;;-144.33;100.00
19843;BME280;10082;51.038;6.992;2024-02-23T11:42:41;112171.53;;;-144.33;100.00
19843;BME280;10082;51.038;6.992;2024-02-23T11:45:09;112171.53;;;-144.33;100.00
19843;BME280;10082;51.038;6.992;2024-02-23T11:47:39;112171.53;;;-144.33;100.00
19843;BME280;10082;51.038;6.992;2024-02-23T11:50:08;112171.53;;;-144.33;100.00
19843;BME280;10082;51.038;6.992;2024-02-23T11:52:36;112171.53;;;-144.33;100.00
19843;BME280;10082;51.038;6.992;2024-02-23T11:55:04;112171.53;;;-144.33;100.00
19843;BME280;10082;51.038;6.992;2024-02-23T11:57:33;112171.53;;;-144.33;99.20
19843;BME280;10082;51.038;6.992;2024-02-23T12:00:01;112171.53;;;-144.33;98.70
19843;BME280;10082;51.038;6.992;2024-02-23T12:02:30;112171.53;;;-144.33;99.43
19843;BME280;10082;51.038;6.992;2024-02-23T12:05:08;112171.53;;;-144.33;99.59
19843;BME280;10082;51.038;6.992;2024-02-23T12:07:35;112171.53;;;-144.33;98.97
19843;BME280;10082;51.038;6.992;2024-02-23T12:10:02;112171.53;;;-144.33;98.38
19843;BME280;10082;51.038;6.992;2024-02-23T12:12:31;112171.53;;;-144.33;97.32
19843;BME280;10082;51.038;6.992;2024-02-23T12:14:59;112171.53;;;-144.33;98.02
19843;BME280;10082;51.038;6.992;2024-02-23T12:17:27;112171.53;;;-144.33;98.77
19843;BME280;10082;51.038;6.992;2024-02-23T12:19:58;112171.53;;;-144.33;98.86
19843;BME280;10082;51.038;6.992;2024-02-23T12:22:27;112171.53;;;-144.33;99.02
19843;BME280;10082;51.038;6.992;2024-02-23T12:24:57;112171.53;;;-144.33;99.60
19843;BME280;10082;51.038;6.992;2024-02-23T12:27:25;112171.53;;;-144.33;99.36
19843;BME280;10082;51.038;6.992;2024-02-23T12:29:54;112171.53;;;-144.33;99.69